createdAt,value
2022-09-27T00:01:19.773Z,59.63
2022-09-27T00:03:46.059Z,64.47
2022-09-27T00:06:12.361Z,70.15
2022-09-27T00:08:38.617Z,72.80
2022-09-27T00:11:04.871Z,76.45
2022-09-27T00:13:31.123Z,81.07
2022-09-27T00:15:57.411Z,76.07
2022-09-27T00:18:23.724Z,72.90
2022-09-27T00:20:49.975Z,69.63
2022-09-27T00:23:16.232Z,63.80
2022-09-27T00:25:42.488Z,59.30
2022-09-27T00:28:08.794Z,54.35
2022-09-27T00:30:35.112Z,58.28
2022-09-27T00:33:01.426Z,64.25
2022-09-27T00:35:27.674Z,59.30
2022-09-27T00:37:53.959Z,56.08
2022-09-27T00:40:24.093Z,56.03
2022-09-27T00:42:50.586Z,58.92
2022-09-27T00:45:17.841Z,62.38
2022-09-27T00:47:44.165Z,57.20
2022-09-27T00:50:10.818Z,54.55
2022-09-27T00:52:37.221Z,49.35
2022-09-27T00:55:03.482Z,50.10
2022-09-27T00:57:29.757Z,48.78
2022-09-27T00:59:56.006Z,50.00
2022-09-27T01:02:22.411Z,49.95
2022-09-27T01:04:49.667Z,50.70
2022-09-27T01:07:15.924Z,50.05
2022-09-27T01:09:42.177Z,58.67
2022-09-27T01:12:08.530Z,56.85
2022-09-27T01:14:34.778Z,61.17
2022-09-27T01:17:01.657Z,61.83
2022-09-27T01:19:27.916Z,67.95
2022-09-27T01:21:54.200Z,65.55
2022-09-27T01:24:20.822Z,71.57
2022-09-27T01:26:47.079Z,64.43
2022-09-27T01:29:13.405Z,55.75
2022-09-27T01:31:39.703Z,59.58
2022-09-27T01:34:05.950Z,58.38
2022-09-27T01:36:32.347Z,56.28
2022-09-27T01:38:59.809Z,53.72
2022-09-27T01:41:26.056Z,62.92
2022-09-27T01:43:52.319Z,59.75
2022-09-27T01:46:18.587Z,70.07
2022-09-27T01:48:44.858Z,88.80
2022-09-27T01:51:11.102Z,81.15
2022-09-27T01:53:37.404Z,81.43
2022-09-27T01:56:03.654Z,78.70
2022-09-27T01:58:29.967Z,79.68
2022-09-27T02:00:56.455Z,84.45
2022-09-27T02:03:22.730Z,86.07
2022-09-27T02:05:48.989Z,87.25
2022-09-27T02:08:15.268Z,77.70
2022-09-27T02:10:41.530Z,86.35
2022-09-27T02:13:07.802Z,72.57
2022-09-27T02:15:34.091Z,68.22
2022-09-27T02:18:00.371Z,77.22
2022-09-27T02:20:26.616Z,82.20
2022-09-27T02:22:52.870Z,86.10
2022-09-27T02:25:19.122Z,81.90
2022-09-27T02:27:45.428Z,81.22
2022-09-27T02:30:12.300Z,74.55
2022-09-27T02:32:38.547Z,71.82
2022-09-27T02:35:04.802Z,70.53
2022-09-27T02:37:31.066Z,58.55
2022-09-27T02:39:57.322Z,55.78
2022-09-27T02:42:23.570Z,46.60
2022-09-27T02:44:49.826Z,48.75
2022-09-27T02:47:16.071Z,57.40
2022-09-27T02:49:42.460Z,54.55
2022-09-27T02:52:08.715Z,55.47
2022-09-27T02:54:34.966Z,53.10
2022-09-27T02:57:01.216Z,53.33
2022-09-27T02:59:27.474Z,58.00
2022-09-27T03:01:53.751Z,63.08
2022-09-27T03:04:22.614Z,54.92
2022-09-27T03:06:48.879Z,53.45
2022-09-27T03:09:15.206Z,50.33
2022-09-27T03:11:41.590Z,50.67
2022-09-27T03:14:09.260Z,51.15
2022-09-27T03:16:35.821Z,47.67
2022-09-27T03:19:02.116Z,52.97
2022-09-27T03:21:29.154Z,57.53
2022-09-27T03:23:55.406Z,56.95
2022-09-27T03:26:21.682Z,59.05
2022-09-27T03:28:47.939Z,65.30
2022-09-27T03:31:14.761Z,63.50
2022-09-27T03:33:41.094Z,62.63
2022-09-27T03:36:07.348Z,79.68
2022-09-27T03:38:33.601Z,73.75
2022-09-27T03:40:59.901Z,45.83
2022-09-27T03:43:26.158Z,47.13
2022-09-27T03:45:52.461Z,51.88
2022-09-27T03:48:18.773Z,49.10
2022-09-27T03:50:45.026Z,51.92
2022-09-27T03:53:11.283Z,56.13
2022-09-27T03:55:37.531Z,75.80
2022-09-27T03:58:03.791Z,86.15
2022-09-27T04:00:32.563Z,68.25
2022-09-27T04:02:59.540Z,73.07
2022-09-27T04:05:25.833Z,104.88
2022-09-27T04:07:52.083Z,144.75
2022-09-27T04:10:18.332Z,83.55
2022-09-27T04:12:44.594Z,127.45
2022-09-27T04:15:11.131Z,133.63
2022-09-27T04:17:37.405Z,68.93
2022-09-27T04:20:03.969Z,58.15
2022-09-27T04:22:30.218Z,73.65
2022-09-27T04:24:56.491Z,60.15
2022-09-27T04:27:22.737Z,58.33
2022-09-27T04:29:48.986Z,86.30
2022-09-27T04:32:15.229Z,92.38
2022-09-27T04:34:59.968Z,66.78
2022-09-27T04:37:26.222Z,60.50
2022-09-27T04:39:52.530Z,58.70
2022-09-27T04:42:18.898Z,61.33
2022-09-27T04:44:45.159Z,71.15
2022-09-27T04:47:11.415Z,86.25
2022-09-27T04:49:38.762Z,63.72
2022-09-27T04:52:05.988Z,63.33
2022-09-27T04:54:32.247Z,71.72
2022-09-27T04:56:58.495Z,64.68
2022-09-27T04:59:24.744Z,58.88
2022-09-27T05:01:51.061Z,57.67
2022-09-27T05:04:17.385Z,46.47
2022-09-27T05:06:43.656Z,54.42
2022-09-27T05:09:09.930Z,61.17
2022-09-27T05:11:37.962Z,63.72
2022-09-27T05:16:33.338Z,52.95
2022-09-27T05:19:00.575Z,59.60
2022-09-27T05:21:26.831Z,69.35
2022-09-27T05:23:53.987Z,68.78
2022-09-27T05:26:20.759Z,67.90
2022-09-27T05:28:47.266Z,63.65
2022-09-27T05:31:14.358Z,60.95
2022-09-27T05:33:40.669Z,61.53
2022-09-27T05:36:06.979Z,65.78
2022-09-27T05:38:33.232Z,66.90
2022-09-27T05:40:59.594Z,67.13
2022-09-27T05:43:26.132Z,71.40
2022-09-27T05:45:53.002Z,75.63
2022-09-27T05:48:19.370Z,82.25
2022-09-27T05:50:45.712Z,77.07
2022-09-27T05:53:13.142Z,73.00
2022-09-27T05:55:39.430Z,81.57
2022-09-27T05:58:05.680Z,74.93
2022-09-27T06:00:31.959Z,77.25
2022-09-27T06:02:58.880Z,78.45
2022-09-27T06:05:25.258Z,78.25
2022-09-27T06:07:51.494Z,80.90
2022-09-27T06:10:17.847Z,76.78
2022-09-27T06:12:44.187Z,99.63
2022-09-27T06:15:10.444Z,108.85
2022-09-27T06:17:36.766Z,98.95
2022-09-27T06:20:03.019Z,103.57
2022-09-27T06:22:29.272Z,105.05
2022-09-27T06:24:55.577Z,108.75
2022-09-27T06:27:21.849Z,112.10
2022-09-27T06:29:48.148Z,106.00
2022-09-27T06:32:14.414Z,91.57
2022-09-27T06:34:41.671Z,89.68
2022-09-27T06:37:07.911Z,91.82
2022-09-27T06:39:34.911Z,102.47
2022-09-27T06:42:01.296Z,109.97
2022-09-27T06:44:27.548Z,119.55
2022-09-27T06:46:55.135Z,106.93
2022-09-27T06:49:22.603Z,73.50
2022-09-27T06:51:48.876Z,72.68
2022-09-27T06:54:15.148Z,70.10
2022-09-27T06:56:41.398Z,68.57
2022-09-27T06:59:26.390Z,73.68
2022-09-27T07:01:52.834Z,71.57
2022-09-27T07:04:19.399Z,75.78
2022-09-27T07:06:45.683Z,76.22
2022-09-27T07:09:11.957Z,75.53
2022-09-27T07:11:38.249Z,74.57
2022-09-27T07:14:08.122Z,76.15
2022-09-27T07:16:34.865Z,70.82
2022-09-27T07:19:01.185Z,72.03
2022-09-27T07:21:27.583Z,74.28
2022-09-27T07:23:53.850Z,71.47
2022-09-27T07:26:20.368Z,69.57
2022-09-27T07:28:46.625Z,72.72
2022-09-27T07:31:12.950Z,67.95
2022-09-27T07:33:43.166Z,65.47
2022-09-27T07:36:09.825Z,70.70
2022-09-27T07:38:36.254Z,79.10
2022-09-27T07:41:02.517Z,88.88
2022-09-27T07:43:28.790Z,99.45
2022-09-27T07:45:55.119Z,86.82
2022-09-27T07:48:21.423Z,70.07
2022-09-27T07:50:48.198Z,63.70
2022-09-27T07:53:15.002Z,68.55
2022-09-27T07:55:42.297Z,82.72
2022-09-27T07:58:08.862Z,86.63
2022-09-27T08:00:35.123Z,73.95
2022-09-27T08:03:01.399Z,70.57
2022-09-27T08:05:27.661Z,55.15
2022-09-27T08:07:53.992Z,51.67
2022-09-27T08:10:20.826Z,51.65
2022-09-27T08:12:47.095Z,61.42
2022-09-27T08:15:13.389Z,62.55
2022-09-27T08:17:39.640Z,58.30
2022-09-27T08:20:06.394Z,56.50
2022-09-27T08:22:32.668Z,54.95
2022-09-27T08:24:58.942Z,55.25
2022-09-27T08:27:25.271Z,55.25
2022-09-27T08:29:52.181Z,53.55
2022-09-27T08:32:22.989Z,62.08
2022-09-27T08:34:49.878Z,66.22
2022-09-27T08:37:16.186Z,62.10
2022-09-27T08:39:46.864Z,62.08
2022-09-27T08:42:14.157Z,46.92
2022-09-27T08:44:41.027Z,50.90
2022-09-27T08:47:07.294Z,98.57
2022-09-27T08:49:33.830Z,88.05
2022-09-27T08:52:00.408Z,57.25
2022-09-27T08:54:29.416Z,80.30
2022-09-27T08:56:56.892Z,114.05
2022-09-27T08:59:23.156Z,76.00
2022-09-27T09:01:49.424Z,68.95
2022-09-27T09:04:15.768Z,67.85
2022-09-27T09:06:42.089Z,54.92
2022-09-27T09:09:08.330Z,52.63
2022-09-27T09:11:53.486Z,77.05
2022-09-27T09:14:19.990Z,52.17
2022-09-27T09:16:47.269Z,53.30
2022-09-27T09:19:13.613Z,62.50
2022-09-27T09:21:39.901Z,74.03
2022-09-27T09:24:06.154Z,96.78
2022-09-27T09:26:32.414Z,80.28
2022-09-27T09:28:58.704Z,86.35
2022-09-27T09:31:25.226Z,91.35
2022-09-27T09:33:51.604Z,90.28
2022-09-27T09:36:17.863Z,91.72
2022-09-27T09:38:44.135Z,107.72
2022-09-27T09:41:10.384Z,109.45
2022-09-27T09:43:36.639Z,63.25
2022-09-27T09:46:03.009Z,75.18
2022-09-27T09:48:29.334Z,105.95
2022-09-27T09:50:55.591Z,110.40
2022-09-27T09:53:21.844Z,96.95
2022-09-27T09:55:48.896Z,67.75
2022-09-27T09:58:19.664Z,57.00
2022-09-27T10:00:46.294Z,54.85
2022-09-27T10:03:12.619Z,54.10
2022-09-27T10:05:38.895Z,55.22
2022-09-27T10:08:05.147Z,80.88
2022-09-27T10:10:31.400Z,141.95
2022-09-27T10:12:57.651Z,130.65
2022-09-27T10:15:23.932Z,104.60
2022-09-27T10:17:50.511Z,67.20
2022-09-27T10:20:16.783Z,71.78
2022-09-27T10:22:43.052Z,59.45
2022-09-27T10:25:09.378Z,69.03
2022-09-27T10:27:35.644Z,122.47
2022-09-27T10:30:01.935Z,153.63
2022-09-27T10:32:30.744Z,62.20
2022-09-27T10:34:57.001Z,124.60
2022-09-27T10:37:23.271Z,83.13
2022-09-27T10:39:50.783Z,60.65
2022-09-27T10:42:17.029Z,53.90
2022-09-27T10:44:43.282Z,60.05
2022-09-27T10:47:09.786Z,70.85
2022-09-27T10:49:36.052Z,66.13
2022-09-27T10:52:02.480Z,63.35
2022-09-27T10:54:28.738Z,55.75
2022-09-27T10:56:55.832Z,52.90
2022-09-27T10:59:22.384Z,53.57
2022-09-27T11:01:50.189Z,52.67
2022-09-27T11:04:16.707Z,44.70
2022-09-27T11:06:43.104Z,56.92
2022-09-27T11:09:09.369Z,42.22
2022-09-27T11:11:35.687Z,45.75
2022-09-27T11:14:04.357Z,55.17
2022-09-27T11:16:30.716Z,76.25
2022-09-27T11:18:57.367Z,62.83
2022-09-27T11:21:24.617Z,63.25
2022-09-27T11:23:50.806Z,55.17
2022-09-27T11:26:17.241Z,71.65
2022-09-27T11:28:43.496Z,60.13
2022-09-27T11:31:09.825Z,55.92
2022-09-27T11:33:36.205Z,54.95
2022-09-27T11:36:02.460Z,76.80
2022-09-27T11:38:52.335Z,103.05
2022-09-27T11:41:14.954Z,86.60
2022-09-27T11:43:41.205Z,76.00
2022-09-27T11:46:19.274Z,68.20
2022-09-27T11:48:49.322Z,60.92
2022-09-27T11:51:16.047Z,95.93
2022-09-27T11:53:42.421Z,108.57
2022-09-27T11:56:08.707Z,47.45
2022-09-27T11:58:34.984Z,60.22
2022-09-27T12:01:01.553Z,56.17
2022-09-27T12:03:27.849Z,55.70
2022-09-27T12:05:58.166Z,60.40
2022-09-27T12:08:25.080Z,65.40
2022-09-27T12:10:51.340Z,68.10
2022-09-27T12:13:17.625Z,76.68
2022-09-27T12:15:43.919Z,47.55
2022-09-27T12:18:10.370Z,116.72
2022-09-27T12:20:36.748Z,121.38
2022-09-27T12:23:03.009Z,114.95
2022-09-27T12:25:29.931Z,91.30
2022-09-27T12:27:56.183Z,116.50
2022-09-27T12:30:22.439Z,130.32
2022-09-27T12:32:48.768Z,87.82
2022-09-27T12:35:15.033Z,64.90
2022-09-27T12:37:41.291Z,86.25
2022-09-27T12:40:07.552Z,111.90
2022-09-27T12:42:33.801Z,68.60
2022-09-27T12:45:00.061Z,74.15
2022-09-27T12:47:26.320Z,60.55
2022-09-27T12:49:53.463Z,75.00
2022-09-27T12:52:25.186Z,72.55
2022-09-27T12:54:51.476Z,57.20
2022-09-27T12:57:18.397Z,51.30
2022-09-27T12:59:44.665Z,105.28
2022-09-27T13:02:11.045Z,53.22
2022-09-27T13:04:37.779Z,49.17
2022-09-27T13:07:04.960Z,55.50
2022-09-27T13:09:31.156Z,133.90
2022-09-27T13:11:57.816Z,58.15
2022-09-27T13:14:24.088Z,59.47
2022-09-27T13:16:51.375Z,56.47
2022-09-27T13:19:17.688Z,55.03
2022-09-27T13:21:43.940Z,55.13
2022-09-27T13:24:12.864Z,74.72
2022-09-27T13:26:39.144Z,104.03
2022-09-27T13:29:05.407Z,88.30
2022-09-27T13:31:31.676Z,80.28
2022-09-27T13:33:57.935Z,69.70
2022-09-27T13:36:25.122Z,66.32
2022-09-27T13:38:51.367Z,45.92
2022-09-27T13:41:18.193Z,55.75
2022-09-27T13:43:44.819Z,61.67
2022-09-27T13:46:13.474Z,64.15
2022-09-27T13:48:39.777Z,82.30
2022-09-27T13:51:06.219Z,83.80
2022-09-27T13:53:32.473Z,58.60
2022-09-27T13:55:58.733Z,52.33
2022-09-27T13:58:25.224Z,47.58
2022-09-27T14:00:51.598Z,47.78
2022-09-27T14:03:17.902Z,52.97
2022-09-27T14:05:44.160Z,48.03
2022-09-27T14:08:10.482Z,48.70
2022-09-27T14:10:36.782Z,45.90
2022-09-27T14:13:03.052Z,44.67
2022-09-27T14:15:29.339Z,45.03
2022-09-27T14:17:55.621Z,52.08
2022-09-27T14:20:23.720Z,49.85
2022-09-27T14:25:16.176Z,47.45
2022-09-27T14:27:42.441Z,53.30
2022-09-27T14:30:08.696Z,50.65
2022-09-27T14:32:35.123Z,51.13
2022-09-27T14:35:01.440Z,49.15
2022-09-27T14:37:28.811Z,46.13
2022-09-27T14:39:55.099Z,45.08
2022-09-27T14:42:21.649Z,46.95
2022-09-27T14:44:47.931Z,42.80
2022-09-27T14:47:14.185Z,44.33
2022-09-27T14:49:40.444Z,44.38
2022-09-27T14:52:06.696Z,41.83
2022-09-27T14:54:33.008Z,41.35
2022-09-27T14:57:00.184Z,44.88
2022-09-27T14:59:30.704Z,42.47
2022-09-27T15:01:56.956Z,43.30
2022-09-27T15:04:24.431Z,45.67
2022-09-27T15:06:50.824Z,46.08
2022-09-27T15:09:17.278Z,40.90
2022-09-27T15:11:44.385Z,40.30
2022-09-27T15:14:11.391Z,43.00
2022-09-27T15:16:37.665Z,43.28
2022-09-27T15:19:04.033Z,47.67
2022-09-27T15:21:30.996Z,46.40
2022-09-27T15:23:58.749Z,50.75
2022-09-27T15:26:25.023Z,45.35
2022-09-27T15:28:52.203Z,44.63
2022-09-27T15:31:18.467Z,43.50
2022-09-27T15:33:45.833Z,42.78
2022-09-27T15:36:15.525Z,43.40
2022-09-27T15:38:47.255Z,40.47
2022-09-27T15:41:13.620Z,47.10
2022-09-27T15:43:40.073Z,46.78
2022-09-27T15:46:06.922Z,46.25
2022-09-27T15:48:33.404Z,44.70
2022-09-27T15:50:59.881Z,42.08
2022-09-27T15:53:26.252Z,43.05
2022-09-27T15:55:52.505Z,44.78
2022-09-27T15:58:18.786Z,43.88
2022-09-27T16:00:45.096Z,45.72
2022-09-27T16:03:11.394Z,45.80
2022-09-27T16:05:37.648Z,42.80
2022-09-27T16:08:04.270Z,44.03
2022-09-27T16:10:30.623Z,45.35
2022-09-27T16:12:56.882Z,46.67
2022-09-27T16:15:23.134Z,47.50
2022-09-27T16:17:49.429Z,43.28
2022-09-27T16:20:15.667Z,47.42
2022-09-27T16:22:41.952Z,46.63
2022-09-27T16:25:08.209Z,45.72
2022-09-27T16:27:35.015Z,44.45
2022-09-27T16:30:01.274Z,51.60
2022-09-27T16:32:27.690Z,51.78
2022-09-27T16:34:53.986Z,44.33
2022-09-27T16:37:20.378Z,43.53
2022-09-27T16:39:46.618Z,48.83
2022-09-27T16:42:13.614Z,47.78
2022-09-27T16:44:39.917Z,45.53
2022-09-27T16:47:08.952Z,52.60
2022-09-27T16:49:54.147Z,44.35
2022-09-27T16:52:20.439Z,42.90
2022-09-27T16:54:46.683Z,55.78
2022-09-27T16:57:12.943Z,48.13
2022-09-27T16:59:39.196Z,50.10
2022-09-27T17:02:05.849Z,60.70
2022-09-27T17:04:32.325Z,59.38
2022-09-27T17:06:58.594Z,62.13
2022-09-27T17:09:24.850Z,74.07
2022-09-27T17:11:51.109Z,93.60
2022-09-27T17:14:18.058Z,93.20
2022-09-27T17:16:44.549Z,61.47
2022-09-27T17:19:10.802Z,64.47
2022-09-27T17:21:38.158Z,70.72
2022-09-27T17:24:04.961Z,51.67
2022-09-27T17:26:31.897Z,57.03
2022-09-27T17:28:58.136Z,54.78
2022-09-27T17:31:25.310Z,44.63
2022-09-27T17:33:56.786Z,65.82
2022-09-27T17:36:24.183Z,62.33
2022-09-27T17:38:50.440Z,53.63
2022-09-27T17:41:16.700Z,46.80
2022-09-27T17:43:50.149Z,46.92
2022-09-27T17:46:16.636Z,52.13
2022-09-27T17:49:01.684Z,54.40
2022-09-27T17:51:29.268Z,53.05
2022-09-27T17:53:55.502Z,63.70
2022-09-27T17:56:22.860Z,65.70
2022-09-27T17:58:49.064Z,66.13
2022-09-27T18:01:15.344Z,95.00
2022-09-27T18:03:41.593Z,107.93
2022-09-27T18:06:07.848Z,84.40
2022-09-27T18:08:34.095Z,64.97
2022-09-27T18:11:01.358Z,77.22
2022-09-27T18:13:29.410Z,50.17
2022-09-27T18:15:57.577Z,44.63
2022-09-27T18:18:23.870Z,47.65
2022-09-27T18:20:50.128Z,59.10
2022-09-27T18:23:16.374Z,52.53
2022-09-27T18:25:43.035Z,57.75
2022-09-27T18:28:09.457Z,61.55
2022-09-27T18:30:35.700Z,62.63
2022-09-27T18:33:01.950Z,102.25
2022-09-27T18:35:28.954Z,117.35
2022-09-27T18:37:55.208Z,80.07
2022-09-27T18:40:44.528Z,62.83
2022-09-27T18:43:07.977Z,142.13
2022-09-27T18:45:34.240Z,154.00
2022-09-27T18:48:00.494Z,105.75
2022-09-27T18:50:26.743Z,63.65
2022-09-27T18:52:52.986Z,61.95
2022-09-27T18:55:22.149Z,83.72
2022-09-27T18:57:51.465Z,103.55
2022-09-27T19:00:17.934Z,105.53
2022-09-27T19:02:44.480Z,69.13
2022-09-27T19:05:10.730Z,61.92
2022-09-27T19:07:36.987Z,53.95
2022-09-27T19:10:04.958Z,55.42
2022-09-27T19:12:31.212Z,59.58
2022-09-27T19:14:57.472Z,53.97
2022-09-27T19:17:23.719Z,77.90
2022-09-27T19:19:50.738Z,83.00
2022-09-27T19:22:17.000Z,92.25
2022-09-27T19:24:43.253Z,99.22
2022-09-27T19:27:09.502Z,62.33
2022-09-27T19:29:36.788Z,52.90
2022-09-27T19:32:03.052Z,60.83
2022-09-27T19:34:29.320Z,54.35
2022-09-27T19:36:55.599Z,58.05
2022-09-27T19:39:21.852Z,56.88
2022-09-27T19:41:48.324Z,60.85
2022-09-27T19:44:14.746Z,55.10
2022-09-27T19:46:41.105Z,53.83
2022-09-27T19:49:07.563Z,54.75
2022-09-27T19:51:33.977Z,55.92
2022-09-27T19:54:00.231Z,52.38
2022-09-27T19:56:26.549Z,52.78
2022-09-27T19:58:53.159Z,49.53
2022-09-27T20:01:20.134Z,54.33
2022-09-27T20:03:46.450Z,50.30
2022-09-27T20:06:12.764Z,52.17
2022-09-27T20:08:39.006Z,56.78
2022-09-27T20:11:06.618Z,55.53
2022-09-27T20:13:33.050Z,58.75
2022-09-27T20:15:59.357Z,68.57
2022-09-27T20:18:25.619Z,109.25
2022-09-27T20:20:51.867Z,152.07
2022-09-27T20:23:19.983Z,134.38
2022-09-27T20:28:12.631Z,94.72
2022-09-27T20:30:39.092Z,125.80
2022-09-27T20:33:23.923Z,101.32
2022-09-27T20:35:50.276Z,81.63
2022-09-27T20:38:16.514Z,73.05
2022-09-27T20:40:42.839Z,63.58
2022-09-27T20:43:09.109Z,69.40
2022-09-27T20:45:35.360Z,66.15
2022-09-27T20:48:01.618Z,59.78
2022-09-27T20:50:27.879Z,64.07
2022-09-27T20:52:54.132Z,67.32
2022-09-27T20:55:20.370Z,70.15
2022-09-27T20:57:57.354Z,74.25
2022-09-27T21:00:24.185Z,86.40
2022-09-27T21:02:50.430Z,89.72
2022-09-27T21:05:16.702Z,107.53
2022-09-27T21:07:42.965Z,95.55
2022-09-27T21:10:09.228Z,69.60
2022-09-27T21:12:35.524Z,60.88
2022-09-27T21:15:01.767Z,60.85
2022-09-27T21:17:28.011Z,70.88
2022-09-27T21:19:54.266Z,84.80
2022-09-27T21:22:20.805Z,98.35
2022-09-27T21:24:47.060Z,77.68
2022-09-27T21:27:13.308Z,62.22
2022-09-27T21:29:39.568Z,61.95
2022-09-27T21:32:05.825Z,62.45
2022-09-27T21:34:32.086Z,60.65
2022-09-27T21:36:58.532Z,69.53
2022-09-27T21:39:24.923Z,65.25
2022-09-27T21:41:51.176Z,60.85
2022-09-27T21:44:18.432Z,59.05
2022-09-27T21:46:44.722Z,59.88
2022-09-27T21:49:11.376Z,63.90
2022-09-27T21:51:37.666Z,58.22
2022-09-27T21:54:03.905Z,55.30
2022-09-27T21:56:30.360Z,59.92
2022-09-27T21:58:56.643Z,69.25
2022-09-27T22:01:22.968Z,56.20
2022-09-27T22:03:49.264Z,57.67
2022-09-27T22:06:15.514Z,56.80
2022-09-27T22:08:41.759Z,54.28
2022-09-27T22:11:08.022Z,52.70
2022-09-27T22:13:34.266Z,48.20
2022-09-27T22:16:00.577Z,53.20
2022-09-27T22:18:26.971Z,49.88
2022-09-27T22:20:53.224Z,52.22
2022-09-27T22:23:19.475Z,48.88
2022-09-27T22:25:45.966Z,50.38
2022-09-27T22:28:12.215Z,46.58
2022-09-27T22:30:38.496Z,47.35
2022-09-27T22:33:04.747Z,49.17
2022-09-27T22:35:31.174Z,52.60
2022-09-27T22:37:57.426Z,52.05
2022-09-27T22:40:23.790Z,47.97
2022-09-27T22:42:51.280Z,47.95
2022-09-27T22:45:18.318Z,49.92
2022-09-27T22:47:44.562Z,50.65
2022-09-27T22:50:10.840Z,52.08
2022-09-27T22:52:37.363Z,54.92
2022-09-27T22:55:03.621Z,55.80
2022-09-27T22:57:29.885Z,59.13
2022-09-27T22:59:56.158Z,73.05
2022-09-27T23:02:22.433Z,57.90
2022-09-27T23:04:48.926Z,53.75
2022-09-27T23:07:15.174Z,55.83
2022-09-27T23:09:41.436Z,60.92
2022-09-27T23:12:07.760Z,57.13
2022-09-27T23:14:34.014Z,59.08
2022-09-27T23:17:01.466Z,65.32
2022-09-27T23:19:27.726Z,69.47
2022-09-27T23:21:54.082Z,76.47
2022-09-27T23:24:20.641Z,74.07
2022-09-27T23:27:06.886Z,76.32
2022-09-27T23:29:33.150Z,72.93
2022-09-27T23:31:59.655Z,68.93
2022-09-27T23:34:25.924Z,70.40
2022-09-27T23:36:52.533Z,72.28
2022-09-27T23:39:18.804Z,75.85
2022-09-27T23:41:45.056Z,76.85
2022-09-27T23:44:13.192Z,73.18
2022-09-27T23:49:07.548Z,66.70
2022-09-27T23:51:33.793Z,67.30
2022-09-27T23:54:00.298Z,61.88
2022-09-27T23:56:26.653Z,53.92
2022-09-27T23:58:52.909Z,52.85
